createdAt,value
2022-08-21T00:02:17.820Z,1.38
2022-08-21T00:04:48.315Z,1.27
2022-08-21T00:07:24.154Z,1.27
2022-08-21T00:09:52.462Z,1.30
2022-08-21T00:12:18.995Z,1.48
2022-08-21T00:14:46.001Z,1.58
2022-08-21T00:17:13.252Z,1.95
2022-08-21T00:19:39.644Z,2.00
2022-08-21T00:22:06.579Z,2.00
2022-08-21T00:24:32.963Z,2.00
2022-08-21T00:26:59.723Z,1.73
2022-08-21T00:29:26.555Z,2.00
2022-08-21T00:31:53.313Z,1.35
2022-08-21T00:34:19.761Z,1.20
2022-08-21T00:36:47.014Z,1.35
2022-08-21T00:39:13.366Z,1.00
2022-08-21T00:41:40.535Z,1.15
2022-08-21T00:44:09.990Z,1.50
2022-08-21T00:46:37.080Z,1.40
2022-08-21T00:49:05.323Z,1.58
2022-08-21T00:52:01.255Z,1.45
2022-08-21T00:54:30.698Z,1.80
2022-08-21T00:57:01.742Z,1.30
2022-08-21T00:59:30.288Z,1.40
2022-08-21T01:01:56.670Z,1.70
2022-08-21T01:04:24.566Z,1.40
2022-08-21T01:06:52.303Z,1.30
2022-08-21T01:09:19.796Z,1.17
2022-08-21T01:11:47.094Z,1.40
2022-08-21T01:14:14.990Z,1.45
2022-08-21T01:16:45.049Z,1.13
2022-08-21T01:19:13.275Z,1.30
2022-08-21T01:21:39.692Z,1.40
2022-08-21T01:24:06.633Z,1.30
2022-08-21T01:26:37.172Z,1.10
2022-08-21T01:29:26.871Z,1.20
2022-08-21T01:31:53.291Z,1.05
2022-08-21T01:34:20.143Z,1.15
2022-08-21T01:36:47.039Z,1.40
2022-08-21T01:39:13.443Z,1.15
2022-08-21T01:41:40.489Z,1.10
2022-08-21T01:44:06.875Z,1.27
2022-08-21T01:46:33.814Z,1.20
2022-08-21T01:49:00.596Z,1.35
2022-08-21T01:51:27.087Z,1.30
2022-08-21T01:53:53.471Z,1.48
2022-08-21T01:56:20.256Z,1.40
2022-08-21T01:58:48.032Z,2.38
2022-08-21T02:01:15.437Z,1.63
2022-08-21T02:03:42.592Z,1.80
2022-08-21T02:06:15.686Z,1.50
2022-08-21T02:08:42.804Z,1.63
2022-08-21T02:11:09.179Z,1.52
2022-08-21T02:13:35.574Z,1.60
2022-08-21T02:16:02.464Z,1.48
2022-08-21T02:18:30.602Z,1.58
2022-08-21T02:20:57.240Z,1.63
2022-08-21T02:23:26.481Z,1.58
2022-08-21T02:25:53.771Z,1.80
2022-08-21T02:28:20.674Z,1.60
2022-08-21T02:30:48.766Z,1.58
2022-08-21T02:33:16.739Z,1.60
2022-08-21T02:35:44.453Z,1.67
2022-08-21T02:38:14.867Z,1.75
2022-08-21T02:40:48.299Z,1.60
2022-08-21T02:43:16.196Z,1.60
2022-08-21T02:45:43.379Z,1.50
2022-08-21T02:48:12.252Z,1.63
2022-08-21T02:50:43.639Z,1.70
2022-08-21T02:53:17.884Z,1.70
2022-08-21T02:55:49.251Z,1.45
2022-08-21T02:58:18.595Z,1.60
2022-08-21T03:00:45.130Z,1.60
2022-08-21T03:03:12.335Z,1.90
2022-08-21T03:05:38.775Z,1.83
2022-08-21T03:08:11.131Z,1.58
2022-08-21T03:10:41.097Z,1.90
2022-08-21T03:13:08.164Z,1.77
2022-08-21T03:15:34.851Z,2.17
2022-08-21T03:18:02.772Z,2.05
2022-08-21T03:20:30.482Z,2.15
2022-08-21T03:22:57.051Z,2.30
2022-08-21T03:25:39.528Z,2.17
2022-08-21T03:28:13.371Z,2.30
2022-08-21T03:30:43.082Z,2.03
2022-08-21T03:33:12.256Z,2.30
2022-08-21T03:35:39.846Z,1.92
2022-08-21T03:38:06.571Z,1.45
2022-08-21T03:40:33.039Z,2.20
2022-08-21T03:42:59.815Z,2.80
2022-08-21T03:45:27.103Z,1.55
2022-08-21T03:47:54.890Z,2.03
2022-08-21T03:50:21.294Z,1.73
2022-08-21T03:52:48.124Z,1.60
2022-08-21T03:55:14.535Z,1.88
2022-08-21T03:57:40.916Z,1.80
2022-08-21T04:00:10.535Z,1.92
2022-08-21T04:02:36.898Z,1.75
2022-08-21T04:05:03.955Z,1.88
2022-08-21T04:07:30.851Z,1.98
2022-08-21T04:09:57.240Z,1.70
2022-08-21T04:12:24.486Z,2.17
2022-08-21T04:14:52.783Z,1.88
2022-08-21T04:17:19.691Z,1.90
2022-08-21T04:19:49.371Z,1.85
2022-08-21T04:22:19.981Z,1.90
2022-08-21T04:24:46.748Z,1.65
2022-08-21T04:27:13.104Z,1.73
2022-08-21T04:29:40.118Z,2.00
2022-08-21T04:32:07.865Z,2.35
2022-08-21T04:34:34.266Z,2.20
2022-08-21T04:37:00.653Z,2.17
2022-08-21T04:39:29.773Z,1.73
2022-08-21T04:41:56.600Z,1.80
2022-08-21T04:44:22.963Z,2.13
2022-08-21T04:46:49.871Z,2.15
2022-08-21T04:49:16.280Z,2.10
2022-08-21T04:51:42.796Z,1.75
2022-08-21T04:54:18.458Z,2.08
2022-08-21T04:56:56.398Z,2.42
2022-08-21T04:59:40.644Z,2.90
2022-08-21T05:02:09.579Z,2.67
2022-08-21T05:04:40.563Z,2.67
2022-08-21T05:07:11.764Z,2.53
2022-08-21T05:09:39.532Z,2.72
2022-08-21T05:12:07.191Z,2.95
2022-08-21T05:14:34.106Z,3.40
2022-08-21T05:17:00.499Z,4.13
2022-08-21T05:19:27.327Z,3.17
2022-08-21T05:21:53.692Z,3.53
2022-08-21T05:24:20.535Z,3.25
2022-08-21T05:26:47.798Z,3.55
2022-08-21T05:29:16.616Z,3.90
2022-08-21T05:31:43.901Z,4.10
2022-08-21T05:34:10.933Z,3.72
2022-08-21T05:36:37.333Z,4.22
2022-08-21T05:39:04.071Z,4.15
2022-08-21T05:41:31.186Z,4.07
2022-08-21T05:44:00.742Z,3.55
2022-08-21T05:46:27.187Z,4.70
2022-08-21T05:48:54.256Z,4.50
2022-08-21T05:51:20.640Z,4.90
2022-08-21T05:53:47.192Z,4.25
2022-08-21T05:56:14.738Z,3.67
2022-08-21T05:58:41.278Z,3.90
2022-08-21T06:01:09.738Z,3.53
2022-08-21T06:03:39.321Z,6.32
2022-08-21T06:06:05.932Z,9.65
2022-08-21T06:08:32.481Z,12.40
2022-08-21T06:11:01.221Z,13.10
2022-08-21T06:13:28.344Z,13.65
2022-08-21T06:16:15.817Z,13.10
2022-08-21T06:18:44.102Z,11.68
2022-08-21T06:21:12.264Z,12.38
2022-08-21T06:23:39.591Z,11.98
2022-08-21T06:26:08.068Z,11.90
2022-08-21T06:28:35.012Z,12.70
2022-08-21T06:31:02.168Z,13.82
2022-08-21T06:33:32.469Z,13.90
2022-08-21T06:35:59.279Z,14.30
2022-08-21T06:38:25.949Z,14.75
2022-08-21T06:40:52.963Z,14.40
2022-08-21T06:43:19.744Z,10.40
2022-08-21T06:45:46.784Z,7.00
2022-08-21T06:48:18.332Z,3.50
2022-08-21T06:50:45.537Z,3.30
2022-08-21T06:53:14.820Z,3.10
2022-08-21T06:55:41.448Z,3.40
2022-08-21T06:58:09.259Z,3.55
2022-08-21T07:00:39.800Z,2.67
2022-08-21T07:03:06.232Z,3.25
2022-08-21T07:05:33.687Z,3.00
2022-08-21T07:08:00.220Z,3.03
2022-08-21T07:10:27.723Z,3.03
2022-08-21T07:13:01.371Z,2.83
2022-08-21T07:17:57.718Z,2.50
2022-08-21T07:20:24.159Z,2.28
2022-08-21T07:22:50.740Z,2.85
2022-08-21T07:25:17.692Z,2.72
2022-08-21T07:27:44.091Z,2.58
2022-08-21T07:30:10.831Z,2.47
2022-08-21T07:32:37.938Z,2.53
2022-08-21T07:35:05.008Z,2.10
2022-08-21T07:37:31.449Z,2.03
2022-08-21T07:39:58.417Z,1.90
2022-08-21T07:42:25.362Z,1.88
2022-08-21T07:44:53.136Z,2.15
2022-08-21T07:47:41.345Z,2.30
2022-08-21T07:50:10.058Z,2.10
2022-08-21T07:52:36.467Z,2.22
2022-08-21T07:55:06.296Z,2.70
2022-08-21T07:57:33.559Z,2.03
2022-08-21T08:00:00.001Z,2.28
2022-08-21T08:02:29.354Z,2.30
2022-08-21T08:04:59.874Z,2.20
2022-08-21T08:07:27.034Z,2.00
2022-08-21T08:09:53.784Z,2.22
2022-08-21T08:12:21.986Z,2.20
2022-08-21T08:14:48.507Z,2.50
2022-08-21T08:17:14.862Z,2.47
2022-08-21T08:19:41.665Z,2.55
2022-08-21T08:22:15.579Z,2.50
2022-08-21T08:24:42.783Z,2.30
2022-08-21T08:27:09.573Z,2.17
2022-08-21T08:29:36.212Z,2.50
2022-08-21T08:32:03.599Z,1.90
2022-08-21T08:34:31.936Z,2.70
2022-08-21T08:36:59.525Z,2.40
2022-08-21T08:39:29.647Z,2.60
2022-08-21T08:42:33.945Z,2.33
2022-08-21T08:45:03.576Z,2.55
2022-08-21T08:47:32.719Z,2.30
2022-08-21T08:50:10.323Z,2.40
2022-08-21T08:52:46.845Z,2.35
2022-08-21T08:55:27.525Z,2.42
2022-08-21T08:57:56.451Z,2.63
2022-08-21T09:00:24.908Z,2.35
2022-08-21T09:02:55.280Z,2.40
2022-08-21T09:06:01.284Z,2.22
2022-08-21T09:08:50.508Z,2.45
2022-08-21T09:11:28.752Z,2.42
2022-08-21T09:14:30.019Z,2.42
2022-08-21T09:17:06.320Z,2.47
2022-08-21T09:19:32.759Z,2.42
2022-08-21T09:22:17.988Z,2.63
2022-08-21T09:25:11.912Z,2.70
2022-08-21T09:27:39.421Z,2.65
2022-08-21T09:30:08.969Z,2.45
2022-08-21T09:32:38.284Z,2.03
2022-08-21T09:35:04.842Z,2.38
2022-08-21T09:37:33.242Z,2.13
2022-08-21T09:40:00.227Z,2.47
2022-08-21T09:42:30.082Z,2.95
2022-08-21T09:45:13.042Z,2.70
2022-08-21T09:47:39.469Z,2.80
2022-08-21T09:50:32.541Z,3.00
2022-08-21T09:53:02.252Z,2.55
2022-08-21T09:56:07.576Z,2.63
2022-08-21T09:58:37.321Z,2.90
2022-08-21T10:01:06.387Z,2.75
2022-08-21T10:03:34.048Z,2.65
2022-08-21T10:06:07.308Z,2.40
2022-08-21T10:08:41.540Z,3.25
2022-08-21T10:11:14.636Z,3.13
2022-08-21T10:13:59.312Z,2.53
2022-08-21T10:16:48.222Z,3.00
2022-08-21T10:19:24.403Z,2.70
2022-08-21T10:22:09.936Z,2.85
2022-08-21T10:24:53.897Z,2.35
2022-08-21T10:27:28.269Z,2.60
2022-08-21T10:30:01.482Z,2.90
2022-08-21T10:32:54.171Z,2.75
2022-08-21T10:35:23.659Z,2.50
2022-08-21T10:38:39.418Z,3.25
2022-08-21T10:41:33.109Z,2.72
2022-08-21T10:44:25.338Z,2.75
2022-08-21T10:47:06.942Z,2.50
2022-08-21T10:49:36.462Z,2.35
2022-08-21T10:52:29.515Z,2.28
2022-08-21T10:55:01.732Z,2.55
2022-08-21T10:57:43.794Z,2.38
2022-08-21T11:00:17.549Z,2.30
2022-08-21T11:02:51.776Z,2.38
2022-08-21T11:05:48.833Z,2.72
2022-08-21T11:08:42.206Z,2.42
2022-08-21T11:11:19.971Z,2.75
2022-08-21T11:13:57.259Z,1.90
2022-08-21T11:16:45.026Z,2.35
2022-08-21T11:19:32.825Z,2.63
2022-08-21T11:22:26.681Z,2.53
2022-08-21T11:25:04.062Z,2.00
2022-08-21T11:27:55.544Z,2.20
2022-08-21T11:30:24.939Z,2.38
2022-08-21T11:33:44.312Z,2.22
2022-08-21T11:36:26.196Z,2.63
2022-08-21T11:39:05.894Z,2.08
2022-08-21T11:41:41.743Z,1.95
2022-08-21T11:44:45.923Z,2.20
2022-08-21T11:47:31.262Z,2.53
2022-08-21T11:50:35.507Z,2.13
2022-08-21T11:53:18.321Z,2.58
2022-08-21T11:55:57.951Z,2.30
2022-08-21T11:58:46.755Z,2.50
2022-08-21T12:01:24.473Z,2.00
2022-08-21T12:04:03.714Z,2.40
2022-08-21T12:06:39.267Z,2.30
2022-08-21T12:09:12.886Z,1.98
2022-08-21T12:11:51.426Z,2.50
2022-08-21T12:14:20.097Z,2.20
2022-08-21T12:16:49.785Z,2.13
2022-08-21T12:19:22.005Z,2.30
2022-08-21T12:22:06.670Z,2.15
2022-08-21T12:24:51.744Z,2.20
2022-08-21T12:27:18.214Z,2.03
2022-08-21T12:29:51.394Z,2.60
2022-08-21T12:32:17.687Z,2.10
2022-08-21T12:34:53.769Z,2.47
2022-08-21T12:37:46.788Z,2.90
2022-08-21T12:40:23.406Z,2.78
2022-08-21T12:42:58.807Z,2.30
2022-08-21T12:45:30.268Z,2.20
2022-08-21T12:48:13.996Z,2.40
2022-08-21T12:50:51.176Z,2.47
2022-08-21T12:53:45.746Z,2.28
2022-08-21T12:56:16.224Z,2.47
2022-08-21T12:58:51.099Z,1.92
2022-08-21T13:01:41.500Z,2.30
2022-08-21T13:04:12.934Z,2.50
2022-08-21T13:06:43.171Z,2.20
2022-08-21T13:09:25.143Z,2.25
2022-08-21T13:11:52.761Z,2.05
2022-08-21T13:14:31.972Z,2.03
2022-08-21T13:17:00.525Z,1.80
2022-08-21T13:19:27.754Z,2.00
2022-08-21T13:21:54.538Z,2.20
2022-08-21T13:27:26.136Z,2.00
2022-08-21T13:30:11.016Z,2.38
2022-08-21T13:32:43.151Z,2.03
2022-08-21T13:35:17.434Z,2.25
2022-08-21T13:37:47.583Z,2.00
2022-08-21T13:40:21.562Z,2.25
2022-08-21T13:42:49.644Z,2.22
2022-08-21T13:45:22.156Z,2.33
2022-08-21T13:47:49.051Z,2.22
2022-08-21T13:50:19.520Z,2.20
2022-08-21T13:53:09.201Z,2.45
2022-08-21T13:55:43.323Z,2.58
2022-08-21T13:58:12.121Z,2.03
2022-08-21T14:00:51.265Z,2.30
2022-08-21T14:03:38.570Z,1.95
2022-08-21T14:06:19.748Z,2.15
2022-08-21T14:08:54.813Z,2.13
2022-08-21T14:11:22.290Z,2.25
2022-08-21T14:13:52.356Z,2.10
2022-08-21T14:16:46.878Z,2.17
2022-08-21T14:21:48.066Z,2.47
2022-08-21T14:24:27.711Z,2.10
2022-08-21T14:26:59.755Z,2.50
2022-08-21T14:29:28.671Z,2.30
2022-08-21T14:32:01.931Z,2.50
2022-08-21T14:34:35.777Z,2.10
2022-08-21T14:37:03.108Z,2.33
2022-08-21T14:39:29.480Z,2.33
2022-08-21T14:41:58.167Z,2.25
2022-08-21T14:44:24.911Z,2.35
2022-08-21T14:46:56.097Z,2.00
2022-08-21T14:49:27.385Z,2.10
2022-08-21T14:51:57.938Z,2.40
2022-08-21T14:54:30.960Z,1.83
2022-08-21T14:57:00.168Z,2.43
2022-08-21T14:59:26.727Z,2.20
2022-08-21T15:01:53.289Z,2.10
2022-08-21T15:04:20.451Z,1.92
2022-08-21T15:06:46.849Z,2.05
2022-08-21T15:09:13.262Z,2.30
2022-08-21T15:11:42.012Z,2.28
2022-08-21T15:14:14.658Z,1.90
2022-08-21T15:16:41.243Z,1.92
2022-08-21T15:19:07.619Z,1.95
2022-08-21T15:21:34.023Z,1.90
2022-08-21T15:24:00.750Z,1.98
2022-08-21T15:26:27.143Z,2.10
2022-08-21T15:28:53.555Z,1.98
2022-08-21T15:31:20.344Z,2.10
2022-08-21T15:33:46.959Z,2.08
2022-08-21T15:36:13.378Z,1.80
2022-08-21T15:38:40.267Z,2.00
2022-08-21T15:41:07.025Z,2.22
2022-08-21T15:43:46.878Z,2.30
2022-08-21T15:46:16.399Z,2.20
2022-08-21T15:48:43.349Z,2.20
2022-08-21T15:51:12.451Z,2.00
2022-08-21T15:53:40.909Z,1.98
2022-08-21T15:56:19.100Z,2.25
2022-08-21T15:58:45.859Z,2.15
2022-08-21T16:01:12.399Z,2.15
2022-08-21T16:03:39.312Z,2.20
2022-08-21T16:06:06.355Z,2.88
2022-08-21T16:08:32.743Z,2.03
2022-08-21T16:11:00.815Z,2.20
2022-08-21T16:13:33.559Z,2.58
2022-08-21T16:16:00.053Z,2.90
2022-08-21T16:18:27.283Z,1.95
2022-08-21T16:20:53.897Z,2.53
2022-08-21T16:23:20.341Z,2.30
2022-08-21T16:25:47.307Z,2.50
2022-08-21T16:28:17.064Z,2.10
2022-08-21T16:30:45.995Z,1.90
2022-08-21T16:33:33.863Z,2.30
2022-08-21T16:36:02.041Z,2.30
2022-08-21T16:38:29.471Z,2.17
2022-08-21T16:40:56.760Z,2.13
2022-08-21T16:43:26.163Z,2.58
2022-08-21T16:45:53.931Z,2.00
2022-08-21T16:48:21.035Z,2.45
2022-08-21T16:50:50.956Z,2.40
2022-08-21T16:53:17.549Z,2.17
2022-08-21T16:55:44.772Z,2.50
2022-08-21T16:58:18.843Z,1.90
2022-08-21T17:03:16.478Z,1.98
2022-08-21T17:05:44.055Z,2.10
2022-08-21T17:08:10.897Z,2.08
2022-08-21T17:10:37.542Z,2.00
2022-08-21T17:13:09.076Z,2.03
2022-08-21T17:15:38.675Z,2.50
2022-08-21T17:18:08.235Z,2.10
2022-08-21T17:20:34.688Z,2.22
2022-08-21T17:23:01.792Z,2.13
2022-08-21T17:25:28.312Z,2.10
2022-08-21T17:27:55.470Z,2.15
2022-08-21T17:30:23.060Z,2.78
2022-08-21T17:32:53.196Z,2.33
2022-08-21T17:35:20.076Z,2.40
2022-08-21T17:37:47.179Z,2.17
2022-08-21T17:40:15.348Z,2.40
2022-08-21T17:42:43.888Z,2.53
2022-08-21T17:45:14.612Z,2.60
2022-08-21T17:47:41.363Z,2.55
2022-08-21T17:50:09.546Z,2.63
2022-08-21T17:52:37.052Z,2.45
2022-08-21T17:55:04.656Z,2.55
2022-08-21T17:57:35.095Z,2.40
2022-08-21T18:00:06.240Z,2.60
2022-08-21T18:02:33.653Z,2.53
2022-08-21T18:05:00.018Z,2.45
2022-08-21T18:07:32.766Z,2.80
2022-08-21T18:10:05.230Z,2.55
2022-08-21T18:12:33.249Z,3.22
2022-08-21T18:15:00.955Z,2.92
2022-08-21T18:17:30.175Z,2.78
2022-08-21T18:19:57.068Z,2.30
2022-08-21T18:22:23.898Z,2.85
2022-08-21T18:24:50.261Z,2.80
2022-08-21T18:27:17.544Z,2.90
2022-08-21T18:29:47.222Z,2.80
2022-08-21T18:32:30.706Z,3.80
2022-08-21T18:35:01.344Z,2.47
2022-08-21T18:37:28.000Z,2.72
2022-08-21T18:39:54.595Z,3.00
2022-08-21T18:42:28.517Z,2.35
2022-08-21T18:45:00.730Z,2.45
2022-08-21T18:47:34.027Z,2.70
2022-08-21T18:50:00.414Z,2.28
2022-08-21T18:55:15.915Z,2.67
2022-08-21T18:57:46.540Z,2.42
2022-08-21T19:00:38.026Z,2.40
2022-08-21T19:03:12.131Z,2.65
2022-08-21T19:05:43.571Z,2.17
2022-08-21T19:08:13.041Z,2.63
2022-08-21T19:10:42.671Z,2.30
2022-08-21T19:13:12.773Z,3.50
2022-08-21T19:15:41.952Z,2.58
2022-08-21T19:18:14.562Z,2.33
2022-08-21T19:20:42.136Z,2.55
2022-08-21T19:23:12.060Z,2.50
2022-08-21T19:25:41.817Z,2.50
2022-08-21T19:28:14.983Z,2.38
2022-08-21T19:30:49.518Z,2.55
2022-08-21T19:33:23.832Z,2.67
2022-08-21T19:38:19.560Z,2.38
2022-08-21T19:40:45.963Z,2.53
2022-08-21T19:43:13.140Z,2.40
2022-08-21T19:45:39.923Z,2.33
2022-08-21T19:48:06.512Z,2.40
2022-08-21T19:50:32.934Z,2.55
2022-08-21T19:53:00.040Z,2.70
2022-08-21T19:55:26.976Z,2.40
2022-08-21T19:57:55.052Z,2.25
2022-08-21T20:00:22.932Z,2.35
2022-08-21T20:02:50.535Z,2.40
2022-08-21T20:05:18.299Z,2.60
2022-08-21T20:07:46.029Z,2.15
2022-08-21T20:10:13.506Z,2.28
2022-08-21T20:12:40.997Z,2.65
2022-08-21T20:15:08.708Z,2.47
2022-08-21T20:17:36.154Z,2.65
2022-08-21T20:20:03.874Z,2.58
2022-08-21T20:22:30.245Z,2.67
2022-08-21T20:24:57.018Z,2.30
2022-08-21T20:27:25.898Z,2.80
2022-08-21T20:29:53.860Z,2.72
2022-08-21T20:32:22.463Z,2.70
2022-08-21T20:34:51.825Z,2.53
2022-08-21T20:37:22.414Z,2.20
2022-08-21T20:40:06.164Z,2.50
2022-08-21T20:42:33.164Z,2.78
2022-08-21T20:45:01.161Z,2.58
2022-08-21T20:47:29.471Z,2.70
2022-08-21T20:50:00.360Z,2.08
2022-08-21T20:52:26.822Z,2.33
2022-08-21T20:55:05.228Z,2.20
2022-08-21T20:57:42.435Z,2.40
2022-08-21T21:00:15.451Z,2.22
2022-08-21T21:02:50.835Z,2.45
2022-08-21T21:05:21.306Z,2.42
2022-08-21T21:07:55.632Z,2.28
2022-08-21T21:10:31.149Z,2.17
2022-08-21T21:13:14.592Z,2.33
2022-08-21T21:15:44.238Z,2.47
2022-08-21T21:18:18.448Z,2.67
2022-08-21T21:20:52.082Z,2.22
2022-08-21T21:23:35.542Z,2.85
2022-08-21T21:26:16.559Z,2.25
2022-08-21T21:28:46.958Z,2.60
2022-08-21T21:31:13.711Z,2.67
2022-08-21T21:33:40.423Z,2.47
2022-08-21T21:36:28.379Z,3.00
2022-08-21T21:39:08.312Z,2.45
2022-08-21T21:41:37.065Z,2.20
2022-08-21T21:44:37.951Z,2.28
2022-08-21T21:47:19.386Z,2.30
2022-08-21T21:50:03.943Z,2.55
2022-08-21T21:52:41.136Z,2.65
2022-08-21T21:55:32.779Z,2.63
2022-08-21T21:58:16.699Z,2.42
2022-08-21T22:00:52.277Z,2.42
2022-08-21T22:03:46.367Z,2.35
2022-08-21T22:06:23.075Z,2.38
2022-08-21T22:09:03.543Z,2.45
2022-08-21T22:11:55.555Z,2.40
2022-08-21T22:14:42.169Z,2.10
2022-08-21T22:17:37.042Z,2.58
2022-08-21T22:20:13.787Z,2.42
2022-08-21T22:22:43.006Z,2.58
2022-08-21T22:25:21.258Z,2.45
2022-08-21T22:27:57.126Z,2.17
2022-08-21T22:30:54.622Z,2.63
2022-08-21T22:33:24.720Z,2.55
2022-08-21T22:35:53.698Z,2.75
2022-08-21T22:38:30.247Z,2.65
2022-08-21T22:41:28.606Z,2.50
2022-08-21T22:44:03.930Z,2.63
2022-08-21T22:46:48.255Z,2.60
2022-08-21T22:49:47.247Z,2.45
2022-08-21T22:52:26.945Z,2.63
2022-08-21T22:55:00.310Z,2.53
2022-08-21T22:57:31.030Z,2.42
2022-08-21T23:00:12.574Z,2.60
2022-08-21T23:02:52.463Z,2.80
2022-08-21T23:05:30.906Z,2.47
2022-08-21T23:08:24.256Z,2.65
2022-08-21T23:10:56.351Z,2.35
2022-08-21T23:13:23.317Z,2.85
2022-08-21T23:16:01.390Z,2.60
2022-08-21T23:18:47.412Z,2.55
2022-08-21T23:21:44.921Z,2.40
2022-08-21T23:24:19.426Z,2.28
2022-08-21T23:27:07.907Z,2.85
2022-08-21T23:29:51.729Z,2.67
2022-08-21T23:32:56.155Z,2.90
2022-08-21T23:35:51.888Z,2.58
2022-08-21T23:38:48.923Z,2.55
2022-08-21T23:44:31.229Z,2.60
2022-08-21T23:47:13.304Z,2.53
2022-08-21T23:49:53.997Z,2.35
2022-08-21T23:52:42.811Z,2.28
2022-08-21T23:55:14.974Z,2.58
2022-08-21T23:57:58.542Z,2.78
